Terminal Aerodrome Forecast
Issued by NWS

Home | Current Version | Previous Version | Text Only | Print | Product List | Glossary On
Versions: 1 2 3 4 5 6 7 8 9 10 11 12
000
FTUS44 KTSA 221100
TAFXNA
TAF
KXNA 221120Z 2212/2312 19006KT P6SM FEW250
     FM221600 20011G16KT P6SM FEW070 FEW250
     FM230000 18003KT P6SM FEW250=

USA.gov is the U.S. government's official web portal to all federal, state and local government web resources and services.